sensor_id;sensor_type;location;lat;lon;timestamp;P1;durP1;ratioP1;P2;durP2;ratioP2
10725;SDS011;5414;59.782;16.378;2022-08-04T00:00:15;5.23;;;4.63;;
10725;SDS011;5414;59.782;16.378;2022-08-04T00:02:45;5.73;;;5.00;;
10725;SDS011;5414;59.782;16.378;2022-08-04T00:05:22;7.07;;;4.30;;
10725;SDS011;5414;59.782;16.378;2022-08-04T00:08:11;6.83;;;5.07;;
10725;SDS011;5414;59.782;16.378;2022-08-04T00:10:39;5.50;;;5.00;;
10725;SDS011;5414;59.782;16.378;2022-08-04T00:13:13;5.77;;;5.13;;
10725;SDS011;5414;59.782;16.378;2022-08-04T00:15:39;5.10;;;4.70;;
10725;SDS011;5414;59.782;16.378;2022-08-04T00:18:07;5.53;;;5.00;;
10725;SDS011;5414;59.782;16.378;2022-08-04T00:20:37;5.80;;;5.13;;
10725;SDS011;5414;59.782;16.378;2022-08-04T00:23:05;7.80;;;5.10;;
10725;SDS011;5414;59.782;16.378;2022-08-04T00:25:31;6.93;;;5.00;;
10725;SDS011;5414;59.782;16.378;2022-08-04T00:27:58;6.50;;;4.83;;
10725;SDS011;5414;59.782;16.378;2022-08-04T00:30:25;7.67;;;4.80;;
10725;SDS011;5414;59.782;16.378;2022-08-04T00:32:51;6.23;;;5.17;;
10725;SDS011;5414;59.782;16.378;2022-08-04T00:35:18;8.20;;;5.07;;
10725;SDS011;5414;59.782;16.378;2022-08-04T00:37:44;6.37;;;5.40;;
10725;SDS011;5414;59.782;16.378;2022-08-04T00:42:41;7.17;;;5.17;;
10725;SDS011;5414;59.782;16.378;2022-08-04T00:50:43;5.23;;;4.73;;
10725;SDS011;5414;59.782;16.378;2022-08-04T00:53:18;5.60;;;4.70;;
10725;SDS011;5414;59.782;16.378;2022-08-04T01:08:28;6.30;;;4.90;;
10725;SDS011;5414;59.782;16.378;2022-08-04T01:11:18;8.80;;;5.90;;
10725;SDS011;5414;59.782;16.378;2022-08-04T01:16:24;7.60;;;5.87;;
10725;SDS011;5414;59.782;16.378;2022-08-04T01:19:06;7.43;;;5.43;;
10725;SDS011;5414;59.782;16.378;2022-08-04T01:27:10;5.60;;;5.07;;
10725;SDS011;5414;59.782;16.378;2022-08-04T01:29:45;5.77;;;5.23;;
10725;SDS011;5414;59.782;16.378;2022-08-04T01:34:42;7.87;;;5.47;;
10725;SDS011;5414;59.782;16.378;2022-08-04T01:40:01;5.67;;;5.03;;
10725;SDS011;5414;59.782;16.378;2022-08-04T01:42:28;5.67;;;5.17;;
10725;SDS011;5414;59.782;16.378;2022-08-04T01:44:55;6.87;;;5.20;;
10725;SDS011;5414;59.782;16.378;2022-08-04T01:47:23;5.97;;;5.40;;
10725;SDS011;5414;59.782;16.378;2022-08-04T01:49:52;6.97;;;4.80;;
10725;SDS011;5414;59.782;16.378;2022-08-04T01:52:19;6.63;;;4.90;;
10725;SDS011;5414;59.782;16.378;2022-08-04T01:54:45;10.83;;;5.03;;
10725;SDS011;5414;59.782;16.378;2022-08-04T01:57:12;7.83;;;5.70;;
10725;SDS011;5414;59.782;16.378;2022-08-04T01:59:40;7.50;;;5.30;;
10725;SDS011;5414;59.782;16.378;2022-08-04T02:02:08;7.63;;;5.00;;
10725;SDS011;5414;59.782;16.378;2022-08-04T02:04:34;6.57;;;5.13;;
10725;SDS011;5414;59.782;16.378;2022-08-04T02:10:02;6.27;;;5.17;;
10725;SDS011;5414;59.782;16.378;2022-08-04T02:20:11;5.17;;;4.67;;
10725;SDS011;5414;59.782;16.378;2022-08-04T02:22:57;8.07;;;5.30;;
10725;SDS011;5414;59.782;16.378;2022-08-04T02:25:24;6.70;;;5.07;;
10725;SDS011;5414;59.782;16.378;2022-08-04T02:30:29;5.50;;;4.90;;
10725;SDS011;5414;59.782;16.378;2022-08-04T02:32:56;6.87;;;5.57;;
10725;SDS011;5414;59.782;16.378;2022-08-04T02:35:25;9.27;;;5.63;;
10725;SDS011;5414;59.782;16.378;2022-08-04T02:38:03;8.07;;;5.00;;
10725;SDS011;5414;59.782;16.378;2022-08-04T02:40:30;7.13;;;4.47;;
10725;SDS011;5414;59.782;16.378;2022-08-04T02:42:57;5.67;;;4.80;;
10725;SDS011;5414;59.782;16.378;2022-08-04T02:45:25;5.73;;;4.60;;
10725;SDS011;5414;59.782;16.378;2022-08-04T02:47:52;5.50;;;4.57;;
10725;SDS011;5414;59.782;16.378;2022-08-04T02:50:20;5.47;;;4.40;;
10725;SDS011;5414;59.782;16.378;2022-08-04T02:52:47;7.07;;;4.93;;
10725;SDS011;5414;59.782;16.378;2022-08-04T02:55:14;5.03;;;4.57;;
10725;SDS011;5414;59.782;16.378;2022-08-04T02:57:41;8.07;;;4.73;;
10725;SDS011;5414;59.782;16.378;2022-08-04T03:00:12;5.80;;;4.73;;
10725;SDS011;5414;59.782;16.378;2022-08-04T03:05:18;6.93;;;5.00;;
10725;SDS011;5414;59.782;16.378;2022-08-04T03:12:56;6.17;;;4.80;;
10725;SDS011;5414;59.782;16.378;2022-08-04T03:28:56;5.50;;;4.13;;
10725;SDS011;5414;59.782;16.378;2022-08-04T03:44:29;6.67;;;4.27;;
10725;SDS011;5414;59.782;16.378;2022-08-04T03:52:34;5.97;;;4.67;;
10725;SDS011;5414;59.782;16.378;2022-08-04T04:19:25;5.47;;;4.13;;
10725;SDS011;5414;59.782;16.378;2022-08-04T04:22:12;6.93;;;4.30;;
10725;SDS011;5414;59.782;16.378;2022-08-04T04:30:22;5.90;;;4.40;;
10725;SDS011;5414;59.782;16.378;2022-08-04T04:43:18;6.07;;;3.77;;
10725;SDS011;5414;59.782;16.378;2022-08-04T04:56:07;3.80;;;3.00;;
10725;SDS011;5414;59.782;16.378;2022-08-04T04:58:36;5.43;;;3.20;;
10725;SDS011;5414;59.782;16.378;2022-08-04T05:04:37;4.80;;;3.47;;
10725;SDS011;5414;59.782;16.378;2022-08-04T05:14:32;3.90;;;3.00;;
10725;SDS011;5414;59.782;16.378;2022-08-04T05:17:11;4.67;;;2.93;;
10725;SDS011;5414;59.782;16.378;2022-08-04T05:19:44;4.70;;;2.83;;
10725;SDS011;5414;59.782;16.378;2022-08-04T05:24:47;4.67;;;2.97;;
10725;SDS011;5414;59.782;16.378;2022-08-04T05:27:16;3.93;;;2.80;;
10725;SDS011;5414;59.782;16.378;2022-08-04T05:29:52;6.90;;;3.23;;
10725;SDS011;5414;59.782;16.378;2022-08-04T05:32:22;3.77;;;2.80;;
10725;SDS011;5414;59.782;16.378;2022-08-04T05:34:54;2.83;;;2.63;;
10725;SDS011;5414;59.782;16.378;2022-08-04T05:37:22;3.97;;;2.83;;
10725;SDS011;5414;59.782;16.378;2022-08-04T05:39:51;4.10;;;3.07;;
10725;SDS011;5414;59.782;16.378;2022-08-04T05:42:18;3.57;;;2.80;;
10725;SDS011;5414;59.782;16.378;2022-08-04T05:44:45;4.97;;;3.20;;
10725;SDS011;5414;59.782;16.378;2022-08-04T05:47:11;4.13;;;3.20;;
10725;SDS011;5414;59.782;16.378;2022-08-04T05:49:38;4.77;;;3.17;;
10725;SDS011;5414;59.782;16.378;2022-08-04T05:52:06;6.33;;;2.90;;
10725;SDS011;5414;59.782;16.378;2022-08-04T05:54:33;4.80;;;2.87;;
10725;SDS011;5414;59.782;16.378;2022-08-04T05:57:02;3.13;;;2.70;;
10725;SDS011;5414;59.782;16.378;2022-08-04T05:59:28;5.30;;;2.87;;
10725;SDS011;5414;59.782;16.378;2022-08-04T06:01:56;3.57;;;3.07;;
10725;SDS011;5414;59.782;16.378;2022-08-04T06:04:33;4.20;;;2.70;;
10725;SDS011;5414;59.782;16.378;2022-08-04T06:07:00;6.87;;;2.97;;
10725;SDS011;5414;59.782;16.378;2022-08-04T06:09:26;5.20;;;3.13;;
10725;SDS011;5414;59.782;16.378;2022-08-04T06:11:52;4.03;;;3.13;;
10725;SDS011;5414;59.782;16.378;2022-08-04T06:14:21;3.30;;;3.00;;
10725;SDS011;5414;59.782;16.378;2022-08-04T06:16:48;4.93;;;3.00;;
10725;SDS011;5414;59.782;16.378;2022-08-04T06:19:15;5.03;;;3.00;;
10725;SDS011;5414;59.782;16.378;2022-08-04T06:21:44;4.23;;;3.10;;
10725;SDS011;5414;59.782;16.378;2022-08-04T06:24:16;5.13;;;3.30;;
10725;SDS011;5414;59.782;16.378;2022-08-04T06:26:43;4.57;;;2.83;;
10725;SDS011;5414;59.782;16.378;2022-08-04T06:29:10;4.40;;;3.33;;
10725;SDS011;5414;59.782;16.378;2022-08-04T06:31:46;4.13;;;2.80;;
10725;SDS011;5414;59.782;16.378;2022-08-04T06:34:22;5.77;;;3.10;;
10725;SDS011;5414;59.782;16.378;2022-08-04T06:36:48;5.20;;;2.90;;
10725;SDS011;5414;59.782;16.378;2022-08-04T06:39:15;5.17;;;2.87;;
10725;SDS011;5414;59.782;16.378;2022-08-04T06:41:41;5.57;;;3.13;;
10725;SDS011;5414;59.782;16.378;2022-08-04T06:44:09;4.13;;;3.20;;
10725;SDS011;5414;59.782;16.378;2022-08-04T06:46:36;4.53;;;3.03;;
10725;SDS011;5414;59.782;16.378;2022-08-04T06:49:02;6.00;;;3.43;;
10725;SDS011;5414;59.782;16.378;2022-08-04T06:51:29;4.33;;;2.50;;
10725;SDS011;5414;59.782;16.378;2022-08-04T06:53:56;3.90;;;2.73;;
10725;SDS011;5414;59.782;16.378;2022-08-04T06:56:22;3.03;;;2.50;;
10725;SDS011;5414;59.782;16.378;2022-08-04T06:58:49;4.67;;;2.90;;
10725;SDS011;5414;59.782;16.378;2022-08-04T07:01:15;5.37;;;2.53;;
10725;SDS011;5414;59.782;16.378;2022-08-04T07:03:43;2.87;;;2.50;;
10725;SDS011;5414;59.782;16.378;2022-08-04T07:06:10;4.83;;;2.83;;
10725;SDS011;5414;59.782;16.378;2022-08-04T07:08:36;6.63;;;2.93;;
10725;SDS011;5414;59.782;16.378;2022-08-04T07:11:02;5.97;;;3.57;;
10725;SDS011;5414;59.782;16.378;2022-08-04T07:13:30;7.77;;;3.17;;
10725;SDS011;5414;59.782;16.378;2022-08-04T07:15:56;5.63;;;3.00;;
10725;SDS011;5414;59.782;16.378;2022-08-04T07:18:22;4.97;;;2.83;;
10725;SDS011;5414;59.782;16.378;2022-08-04T07:20:48;8.33;;;3.77;;
10725;SDS011;5414;59.782;16.378;2022-08-04T07:23:15;5.03;;;2.33;;
10725;SDS011;5414;59.782;16.378;2022-08-04T07:25:42;4.47;;;2.60;;
10725;SDS011;5414;59.782;16.378;2022-08-04T07:28:08;4.77;;;2.60;;
10725;SDS011;5414;59.782;16.378;2022-08-04T07:30:34;4.27;;;2.70;;
10725;SDS011;5414;59.782;16.378;2022-08-04T07:33:01;3.40;;;2.73;;
10725;SDS011;5414;59.782;16.378;2022-08-04T07:35:28;4.77;;;2.73;;
10725;SDS011;5414;59.782;16.378;2022-08-04T07:37:54;3.77;;;3.10;;
10725;SDS011;5414;59.782;16.378;2022-08-04T07:40:20;6.47;;;2.67;;
10725;SDS011;5414;59.782;16.378;2022-08-04T07:42:46;3.63;;;2.60;;
10725;SDS011;5414;59.782;16.378;2022-08-04T07:45:12;3.60;;;2.50;;
10725;SDS011;5414;59.782;16.378;2022-08-04T07:47:42;4.33;;;2.70;;
10725;SDS011;5414;59.782;16.378;2022-08-04T07:50:08;5.13;;;2.57;;
10725;SDS011;5414;59.782;16.378;2022-08-04T07:52:36;8.20;;;3.00;;
10725;SDS011;5414;59.782;16.378;2022-08-04T07:55:03;3.43;;;2.60;;
10725;SDS011;5414;59.782;16.378;2022-08-04T07:57:29;4.97;;;3.00;;
10725;SDS011;5414;59.782;16.378;2022-08-04T07:59:55;3.80;;;2.50;;
10725;SDS011;5414;59.782;16.378;2022-08-04T08:02:21;5.27;;;2.60;;
10725;SDS011;5414;59.782;16.378;2022-08-04T08:04:48;4.53;;;2.70;;
10725;SDS011;5414;59.782;16.378;2022-08-04T08:07:14;3.63;;;2.63;;
10725;SDS011;5414;59.782;16.378;2022-08-04T08:09:41;5.30;;;2.63;;
10725;SDS011;5414;59.782;16.378;2022-08-04T08:12:07;4.60;;;2.57;;
10725;SDS011;5414;59.782;16.378;2022-08-04T08:14:34;5.37;;;2.63;;
10725;SDS011;5414;59.782;16.378;2022-08-04T08:17:00;5.43;;;2.60;;
10725;SDS011;5414;59.782;16.378;2022-08-04T08:19:27;2.63;;;2.13;;
10725;SDS011;5414;59.782;16.378;2022-08-04T08:21:53;3.83;;;2.30;;
10725;SDS011;5414;59.782;16.378;2022-08-04T08:24:21;3.73;;;2.43;;
10725;SDS011;5414;59.782;16.378;2022-08-04T08:26:47;4.97;;;2.43;;
10725;SDS011;5414;59.782;16.378;2022-08-04T08:29:13;5.37;;;2.80;;
10725;SDS011;5414;59.782;16.378;2022-08-04T08:31:40;3.50;;;2.53;;
10725;SDS011;5414;59.782;16.378;2022-08-04T08:34:07;5.63;;;2.13;;
10725;SDS011;5414;59.782;16.378;2022-08-04T08:36:38;3.50;;;2.20;;
10725;SDS011;5414;59.782;16.378;2022-08-04T08:41:39;6.03;;;2.77;;
10725;SDS011;5414;59.782;16.378;2022-08-04T08:44:13;3.93;;;2.57;;
10725;SDS011;5414;59.782;16.378;2022-08-04T08:49:21;4.47;;;2.80;;
10725;SDS011;5414;59.782;16.378;2022-08-04T08:52:03;4.90;;;2.33;;
10725;SDS011;5414;59.782;16.378;2022-08-04T08:54:41;3.60;;;2.20;;
10725;SDS011;5414;59.782;16.378;2022-08-04T08:59:49;4.73;;;2.33;;
10725;SDS011;5414;59.782;16.378;2022-08-04T09:05:06;3.30;;;2.00;;
10725;SDS011;5414;59.782;16.378;2022-08-04T09:10:09;3.20;;;1.93;;
10725;SDS011;5414;59.782;16.378;2022-08-04T09:12:56;2.80;;;1.73;;
10725;SDS011;5414;59.782;16.378;2022-08-04T09:16:07;4.17;;;2.17;;
10725;SDS011;5414;59.782;16.378;2022-08-04T09:18:24;3.07;;;2.00;;
10725;SDS011;5414;59.782;16.378;2022-08-04T09:28:46;5.07;;;2.13;;
10725;SDS011;5414;59.782;16.378;2022-08-04T09:31:14;4.27;;;1.60;;
10725;SDS011;5414;59.782;16.378;2022-08-04T09:33:44;3.20;;;1.97;;
10725;SDS011;5414;59.782;16.378;2022-08-04T09:41:28;3.93;;;1.70;;
10725;SDS011;5414;59.782;16.378;2022-08-04T09:46:29;3.63;;;2.10;;
10725;SDS011;5414;59.782;16.378;2022-08-04T09:49:02;2.83;;;1.60;;
10725;SDS011;5414;59.782;16.378;2022-08-04T09:56:57;3.60;;;2.00;;
10725;SDS011;5414;59.782;16.378;2022-08-04T10:01:58;3.07;;;1.87;;
10725;SDS011;5414;59.782;16.378;2022-08-04T10:04:27;2.33;;;1.67;;
10725;SDS011;5414;59.782;16.378;2022-08-04T10:07:08;2.97;;;1.73;;
10725;SDS011;5414;59.782;16.378;2022-08-04T10:09:50;4.17;;;2.27;;
10725;SDS011;5414;59.782;16.378;2022-08-04T10:15:05;3.47;;;1.73;;
10725;SDS011;5414;59.782;16.378;2022-08-04T10:20:47;2.63;;;1.70;;
10725;SDS011;5414;59.782;16.378;2022-08-04T10:23:00;2.58;;;1.63;;
10725;SDS011;5414;59.782;16.378;2022-08-04T10:25:37;2.70;;;1.50;;
10725;SDS011;5414;59.782;16.378;2022-08-04T10:28:08;3.30;;;1.40;;
10725;SDS011;5414;59.782;16.378;2022-08-04T10:30:36;2.38;;;1.40;;
10725;SDS011;5414;59.782;16.378;2022-08-04T10:35:48;2.05;;;1.42;;
10725;SDS011;5414;59.782;16.378;2022-08-04T10:40:43;4.27;;;1.80;;
10725;SDS011;5414;59.782;16.378;2022-08-04T10:46:13;2.90;;;1.70;;
10725;SDS011;5414;59.782;16.378;2022-08-04T10:53:28;2.78;;;1.70;;
10725;SDS011;5414;59.782;16.378;2022-08-04T10:56:03;2.83;;;1.50;;
10725;SDS011;5414;59.782;16.378;2022-08-04T10:58:32;3.80;;;1.45;;
10725;SDS011;5414;59.782;16.378;2022-08-04T11:00:59;3.07;;;1.70;;
10725;SDS011;5414;59.782;16.378;2022-08-04T11:03:37;2.60;;;1.50;;
10725;SDS011;5414;59.782;16.378;2022-08-04T11:06:05;1.63;;;1.25;;
10725;SDS011;5414;59.782;16.378;2022-08-04T11:08:41;3.72;;;1.33;;
10725;SDS011;5414;59.782;16.378;2022-08-04T11:11:09;2.53;;;1.40;;
10725;SDS011;5414;59.782;16.378;2022-08-04T11:14:26;4.10;;;1.83;;
10725;SDS011;5414;59.782;16.378;2022-08-04T11:16:33;2.03;;;1.38;;
10725;SDS011;5414;59.782;16.378;2022-08-04T11:21:59;3.33;;;1.63;;
10725;SDS011;5414;59.782;16.378;2022-08-04T11:24:34;2.63;;;1.58;;
10725;SDS011;5414;59.782;16.378;2022-08-04T11:27:14;2.33;;;1.60;;
10725;SDS011;5414;59.782;16.378;2022-08-04T11:32:19;1.30;;;1.20;;
10725;SDS011;5414;59.782;16.378;2022-08-04T11:34:47;2.40;;;1.60;;
10725;SDS011;5414;59.782;16.378;2022-08-04T11:37:16;3.72;;;1.45;;
10725;SDS011;5414;59.782;16.378;2022-08-04T11:42:22;6.28;;;1.75;;
10725;SDS011;5414;59.782;16.378;2022-08-04T11:45:04;4.20;;;1.60;;
10725;SDS011;5414;59.782;16.378;2022-08-04T11:52:47;3.10;;;1.53;;
10725;SDS011;5414;59.782;16.378;2022-08-04T11:55:15;2.50;;;1.57;;
10725;SDS011;5414;59.782;16.378;2022-08-04T11:57:45;2.75;;;1.45;;
10725;SDS011;5414;59.782;16.378;2022-08-04T12:00:12;1.90;;;1.38;;
10725;SDS011;5414;59.782;16.378;2022-08-04T12:05:26;3.35;;;1.60;;
10725;SDS011;5414;59.782;16.378;2022-08-04T12:08:04;2.65;;;1.55;;
10725;SDS011;5414;59.782;16.378;2022-08-04T12:15:29;4.47;;;1.88;;
10725;SDS011;5414;59.782;16.378;2022-08-04T12:20:42;2.17;;;1.20;;
10725;SDS011;5414;59.782;16.378;2022-08-04T12:23:19;3.15;;;1.63;;
10725;SDS011;5414;59.782;16.378;2022-08-04T12:25:47;2.85;;;1.55;;
10725;SDS011;5414;59.782;16.378;2022-08-04T12:28:25;2.28;;;1.50;;
10725;SDS011;5414;59.782;16.378;2022-08-04T12:31:56;4.13;;;1.75;;
10725;SDS011;5414;59.782;16.378;2022-08-04T12:33:53;3.25;;;1.80;;
10725;SDS011;5414;59.782;16.378;2022-08-04T12:36:24;2.42;;;1.60;;
10725;SDS011;5414;59.782;16.378;2022-08-04T12:39:00;2.92;;;1.50;;
10725;SDS011;5414;59.782;16.378;2022-08-04T12:41:29;3.35;;;1.85;;
10725;SDS011;5414;59.782;16.378;2022-08-04T12:44:02;2.75;;;1.50;;
10725;SDS011;5414;59.782;16.378;2022-08-04T12:46:29;2.70;;;1.73;;
10725;SDS011;5414;59.782;16.378;2022-08-04T12:48:59;3.08;;;1.88;;
10725;SDS011;5414;59.782;16.378;2022-08-04T12:51:26;2.58;;;1.88;;
10725;SDS011;5414;59.782;16.378;2022-08-04T12:53:52;3.50;;;1.58;;
10725;SDS011;5414;59.782;16.378;2022-08-04T12:56:23;2.25;;;1.60;;
10725;SDS011;5414;59.782;16.378;2022-08-04T12:58:50;1.92;;;1.50;;
10725;SDS011;5414;59.782;16.378;2022-08-04T13:01:19;2.38;;;1.50;;
10725;SDS011;5414;59.782;16.378;2022-08-04T13:03:52;1.67;;;1.50;;
10725;SDS011;5414;59.782;16.378;2022-08-04T13:06:24;3.05;;;1.67;;
10725;SDS011;5414;59.782;16.378;2022-08-04T13:08:51;1.90;;;1.73;;
10725;SDS011;5414;59.782;16.378;2022-08-04T13:11:17;4.32;;;2.15;;
10725;SDS011;5414;59.782;16.378;2022-08-04T13:13:44;3.17;;;1.52;;
10725;SDS011;5414;59.782;16.378;2022-08-04T13:16:11;2.10;;;1.55;;
10725;SDS011;5414;59.782;16.378;2022-08-04T13:18:39;3.72;;;2.30;;
10725;SDS011;5414;59.782;16.378;2022-08-04T13:21:19;2.40;;;1.73;;
10725;SDS011;5414;59.782;16.378;2022-08-04T13:23:46;2.03;;;1.60;;
10725;SDS011;5414;59.782;16.378;2022-08-04T13:26:14;3.90;;;1.90;;
10725;SDS011;5414;59.782;16.378;2022-08-04T13:28:44;2.72;;;1.77;;
10725;SDS011;5414;59.782;16.378;2022-08-04T13:31:13;2.83;;;1.60;;
10725;SDS011;5414;59.782;16.378;2022-08-04T13:33:41;3.03;;;1.80;;
10725;SDS011;5414;59.782;16.378;2022-08-04T13:36:07;2.75;;;1.83;;
10725;SDS011;5414;59.782;16.378;2022-08-04T13:38:39;1.60;;;1.50;;
10725;SDS011;5414;59.782;16.378;2022-08-04T13:41:05;3.90;;;1.80;;
10725;SDS011;5414;59.782;16.378;2022-08-04T13:43:33;2.65;;;1.63;;
10725;SDS011;5414;59.782;16.378;2022-08-04T13:46:00;2.88;;;1.83;;
10725;SDS011;5414;59.782;16.378;2022-08-04T13:48:31;3.08;;;2.00;;
10725;SDS011;5414;59.782;16.378;2022-08-04T13:50:59;2.97;;;1.80;;
10725;SDS011;5414;59.782;16.378;2022-08-04T13:53:31;3.13;;;1.77;;
10725;SDS011;5414;59.782;16.378;2022-08-04T13:55:57;2.45;;;1.60;;
10725;SDS011;5414;59.782;16.378;2022-08-04T13:58:25;2.65;;;1.73;;
10725;SDS011;5414;59.782;16.378;2022-08-04T14:03:37;2.42;;;1.60;;
10725;SDS011;5414;59.782;16.378;2022-08-04T14:06:08;3.22;;;1.85;;
10725;SDS011;5414;59.782;16.378;2022-08-04T14:08:42;3.05;;;1.90;;
10725;SDS011;5414;59.782;16.378;2022-08-04T14:11:10;2.28;;;1.80;;
10725;SDS011;5414;59.782;16.378;2022-08-04T14:13:36;3.13;;;1.80;;
10725;SDS011;5414;59.782;16.378;2022-08-04T14:16:12;2.50;;;1.90;;
10725;SDS011;5414;59.782;16.378;2022-08-04T14:18:38;2.22;;;1.63;;
10725;SDS011;5414;59.782;16.378;2022-08-04T14:21:11;2.77;;;1.90;;
10725;SDS011;5414;59.782;16.378;2022-08-04T14:23:48;2.93;;;2.10;;
10725;SDS011;5414;59.782;16.378;2022-08-04T14:26:33;2.75;;;1.88;;
10725;SDS011;5414;59.782;16.378;2022-08-04T14:29:09;2.63;;;1.90;;
10725;SDS011;5414;59.782;16.378;2022-08-04T14:31:37;2.75;;;1.80;;
10725;SDS011;5414;59.782;16.378;2022-08-04T14:34:03;2.78;;;2.03;;
10725;SDS011;5414;59.782;16.378;2022-08-04T14:36:37;3.38;;;2.05;;
10725;SDS011;5414;59.782;16.378;2022-08-04T14:39:04;4.23;;;2.30;;
10725;SDS011;5414;59.782;16.378;2022-08-04T14:41:42;2.43;;;1.90;;
10725;SDS011;5414;59.782;16.378;2022-08-04T14:44:09;2.27;;;2.00;;
10725;SDS011;5414;59.782;16.378;2022-08-04T14:46:35;2.50;;;1.90;;
10725;SDS011;5414;59.782;16.378;2022-08-04T14:49:13;1.65;;;1.55;;
10725;SDS011;5414;59.782;16.378;2022-08-04T14:52:00;2.73;;;1.80;;
10725;SDS011;5414;59.782;16.378;2022-08-04T14:54:30;2.83;;;1.90;;
10725;SDS011;5414;59.782;16.378;2022-08-04T14:56:59;3.23;;;2.00;;
10725;SDS011;5414;59.782;16.378;2022-08-04T14:59:25;2.07;;;1.93;;
10725;SDS011;5414;59.782;16.378;2022-08-04T15:01:52;2.80;;;1.97;;
10725;SDS011;5414;59.782;16.378;2022-08-04T15:04:20;2.77;;;1.80;;
10725;SDS011;5414;59.782;16.378;2022-08-04T15:06:49;1.93;;;1.63;;
10725;SDS011;5414;59.782;16.378;2022-08-04T15:09:15;2.23;;;1.63;;
10725;SDS011;5414;59.782;16.378;2022-08-04T15:11:41;2.37;;;1.63;;
10725;SDS011;5414;59.782;16.378;2022-08-04T15:14:08;3.50;;;1.70;;
10725;SDS011;5414;59.782;16.378;2022-08-04T15:16:34;2.00;;;1.80;;
10725;SDS011;5414;59.782;16.378;2022-08-04T15:19:00;2.30;;;1.67;;
10725;SDS011;5414;59.782;16.378;2022-08-04T15:21:27;2.43;;;1.70;;
10725;SDS011;5414;59.782;16.378;2022-08-04T15:23:54;2.33;;;1.80;;
10725;SDS011;5414;59.782;16.378;2022-08-04T15:26:27;2.10;;;1.60;;
10725;SDS011;5414;59.782;16.378;2022-08-04T15:28:57;1.70;;;1.60;;
10725;SDS011;5414;59.782;16.378;2022-08-04T15:31:24;2.10;;;1.63;;
10725;SDS011;5414;59.782;16.378;2022-08-04T15:33:53;2.22;;;1.70;;
10725;SDS011;5414;59.782;16.378;2022-08-04T15:36:42;2.40;;;1.73;;
10725;SDS011;5414;59.782;16.378;2022-08-04T15:39:25;1.50;;;1.40;;
10725;SDS011;5414;59.782;16.378;2022-08-04T15:47:16;1.70;;;1.60;;
10725;SDS011;5414;59.782;16.378;2022-08-04T15:49:42;3.07;;;1.80;;
10725;SDS011;5414;59.782;16.378;2022-08-04T15:52:12;2.30;;;1.57;;
10725;SDS011;5414;59.782;16.378;2022-08-04T15:54:40;3.88;;;1.90;;
10725;SDS011;5414;59.782;16.378;2022-08-04T15:57:06;3.30;;;1.90;;
10725;SDS011;5414;59.782;16.378;2022-08-04T16:07:52;2.97;;;1.73;;
10725;SDS011;5414;59.782;16.378;2022-08-04T16:13:08;2.63;;;1.77;;
10725;SDS011;5414;59.782;16.378;2022-08-04T16:15:42;2.20;;;1.73;;
10725;SDS011;5414;59.782;16.378;2022-08-04T16:18:08;2.53;;;1.73;;
10725;SDS011;5414;59.782;16.378;2022-08-04T16:20:35;1.87;;;1.77;;
10725;SDS011;5414;59.782;16.378;2022-08-04T16:25:43;2.60;;;2.00;;
10725;SDS011;5414;59.782;16.378;2022-08-04T16:31:10;2.87;;;2.00;;
10725;SDS011;5414;59.782;16.378;2022-08-04T16:33:37;2.37;;;1.80;;
10725;SDS011;5414;59.782;16.378;2022-08-04T16:36:05;2.53;;;1.90;;
10725;SDS011;5414;59.782;16.378;2022-08-04T16:38:31;2.37;;;1.80;;
10725;SDS011;5414;59.782;16.378;2022-08-04T16:40:59;2.43;;;2.23;;
10725;SDS011;5414;59.782;16.378;2022-08-04T16:43:29;2.50;;;2.30;;
10725;SDS011;5414;59.782;16.378;2022-08-04T16:45:59;2.20;;;2.00;;
10725;SDS011;5414;59.782;16.378;2022-08-04T16:48:30;3.33;;;2.10;;
10725;SDS011;5414;59.782;16.378;2022-08-04T16:50:57;2.67;;;2.20;;
10725;SDS011;5414;59.782;16.378;2022-08-04T16:53:25;2.67;;;2.00;;
10725;SDS011;5414;59.782;16.378;2022-08-04T16:55:53;2.70;;;2.20;;
10725;SDS011;5414;59.782;16.378;2022-08-04T16:58:23;2.37;;;2.10;;
10725;SDS011;5414;59.782;16.378;2022-08-04T17:00:50;3.20;;;2.10;;
10725;SDS011;5414;59.782;16.378;2022-08-04T17:03:16;4.73;;;2.20;;
10725;SDS011;5414;59.782;16.378;2022-08-04T17:05:42;3.20;;;2.40;;
10725;SDS011;5414;59.782;16.378;2022-08-04T17:08:10;2.53;;;2.10;;
10725;SDS011;5414;59.782;16.378;2022-08-04T17:10:42;5.60;;;2.13;;
10725;SDS011;5414;59.782;16.378;2022-08-04T17:15:51;2.13;;;1.90;;
10725;SDS011;5414;59.782;16.378;2022-08-04T17:18:24;2.23;;;2.03;;
10725;SDS011;5414;59.782;16.378;2022-08-04T17:20:51;3.67;;;1.80;;
10725;SDS011;5414;59.782;16.378;2022-08-04T17:23:31;4.80;;;2.43;;
10725;SDS011;5414;59.782;16.378;2022-08-04T17:26:19;2.47;;;2.00;;
10725;SDS011;5414;59.782;16.378;2022-08-04T17:28:46;2.30;;;2.10;;
10725;SDS011;5414;59.782;16.378;2022-08-04T17:31:13;2.17;;;1.97;;
10725;SDS011;5414;59.782;16.378;2022-08-04T17:33:42;1.70;;;1.60;;
10725;SDS011;5414;59.782;16.378;2022-08-04T17:36:10;2.03;;;1.83;;
10725;SDS011;5414;59.782;16.378;2022-08-04T17:41:04;2.90;;;1.93;;
10725;SDS011;5414;59.782;16.378;2022-08-04T17:46:12;2.20;;;2.00;;
10725;SDS011;5414;59.782;16.378;2022-08-04T17:48:39;2.97;;;2.07;;
10725;SDS011;5414;59.782;16.378;2022-08-04T17:51:13;2.37;;;1.80;;
10725;SDS011;5414;59.782;16.378;2022-08-04T17:53:41;3.00;;;2.40;;
10725;SDS011;5414;59.782;16.378;2022-08-04T18:06:52;5.03;;;2.47;;
10725;SDS011;5414;59.782;16.378;2022-08-04T18:09:26;3.37;;;2.53;;
10725;SDS011;5414;59.782;16.378;2022-08-04T18:11:56;4.87;;;2.30;;
10725;SDS011;5414;59.782;16.378;2022-08-04T18:14:23;3.20;;;2.90;;
10725;SDS011;5414;59.782;16.378;2022-08-04T18:16:50;4.23;;;2.70;;
10725;SDS011;5414;59.782;16.378;2022-08-04T18:19:16;4.90;;;3.07;;
10725;SDS011;5414;59.782;16.378;2022-08-04T18:21:42;3.93;;;2.27;;
10725;SDS011;5414;59.782;16.378;2022-08-04T18:24:12;6.00;;;2.50;;
10725;SDS011;5414;59.782;16.378;2022-08-04T18:26:38;4.37;;;3.00;;
10725;SDS011;5414;59.782;16.378;2022-08-04T18:29:05;5.40;;;2.70;;
10725;SDS011;5414;59.782;16.378;2022-08-04T18:31:32;6.20;;;2.70;;
10725;SDS011;5414;59.782;16.378;2022-08-04T20:11:01;4.27;;;1.33;;
10725;SDS011;5414;59.782;16.378;2022-08-04T20:13:27;1.97;;;1.10;;
10725;SDS011;5414;59.782;16.378;2022-08-04T20:15:54;1.67;;;1.20;;
10725;SDS011;5414;59.782;16.378;2022-08-04T20:18:20;2.37;;;1.33;;
10725;SDS011;5414;59.782;16.378;2022-08-04T20:20:46;3.73;;;1.40;;
10725;SDS011;5414;59.782;16.378;2022-08-04T20:23:12;2.57;;;1.40;;
10725;SDS011;5414;59.782;16.378;2022-08-04T20:25:38;2.60;;;1.40;;
10725;SDS011;5414;59.782;16.378;2022-08-04T20:28:04;2.00;;;1.47;;
10725;SDS011;5414;59.782;16.378;2022-08-04T20:30:31;1.90;;;1.30;;
10725;SDS011;5414;59.782;16.378;2022-08-04T20:32:57;3.03;;;1.60;;
10725;SDS011;5414;59.782;16.378;2022-08-04T20:35:25;2.07;;;1.30;;
10725;SDS011;5414;59.782;16.378;2022-08-04T20:37:51;2.00;;;1.30;;
10725;SDS011;5414;59.782;16.378;2022-08-04T20:40:17;2.37;;;1.57;;
10725;SDS011;5414;59.782;16.378;2022-08-04T20:42:43;1.83;;;1.50;;
10725;SDS011;5414;59.782;16.378;2022-08-04T20:45:09;1.30;;;1.20;;
10725;SDS011;5414;59.782;16.378;2022-08-04T20:47:35;2.27;;;1.40;;
10725;SDS011;5414;59.782;16.378;2022-08-04T20:50:05;1.20;;;1.10;;
10725;SDS011;5414;59.782;16.378;2022-08-04T20:52:32;2.53;;;1.40;;
10725;SDS011;5414;59.782;16.378;2022-08-04T20:54:59;1.63;;;1.17;;
10725;SDS011;5414;59.782;16.378;2022-08-04T20:57:26;2.60;;;1.30;;
10725;SDS011;5414;59.782;16.378;2022-08-04T20:59:52;2.03;;;1.10;;
10725;SDS011;5414;59.782;16.378;2022-08-04T21:02:18;2.57;;;1.20;;
10725;SDS011;5414;59.782;16.378;2022-08-04T21:04:44;1.73;;;1.23;;
10725;SDS011;5414;59.782;16.378;2022-08-04T21:07:10;1.63;;;1.23;;
10725;SDS011;5414;59.782;16.378;2022-08-04T21:09:38;1.90;;;1.40;;
10725;SDS011;5414;59.782;16.378;2022-08-04T21:12:05;2.70;;;1.30;;